createdAt,value
2018-04-02T00:01:58.279Z,74.70
2018-04-02T00:04:26.946Z,76.10
2018-04-02T00:06:54.807Z,76.80
2018-04-02T00:09:22.694Z,75.30
2018-04-02T00:11:51.454Z,75.20
2018-04-02T00:14:19.327Z,75.10
2018-04-02T00:16:47.208Z,76.00
2018-04-02T00:19:15.110Z,77.80
2018-04-02T00:21:42.974Z,81.80
2018-04-02T00:24:10.792Z,83.10
2018-04-02T00:26:38.734Z,81.70
2018-04-02T00:29:06.564Z,83.90
2018-04-02T00:31:35.394Z,81.70
2018-04-02T00:34:03.261Z,81.70
2018-04-02T00:36:31.086Z,82.70
2018-04-02T00:39:00.034Z,84.60
2018-04-02T00:41:28.057Z,84.60
2018-04-02T00:43:55.914Z,84.10
2018-04-02T00:46:23.812Z,85.50
2018-04-02T00:48:51.734Z,82.90
2018-04-02T00:51:19.722Z,84.50
2018-04-02T00:53:48.411Z,86.00
2018-04-02T00:56:16.455Z,86.00
2018-04-02T00:58:44.359Z,85.00
2018-04-02T01:01:12.325Z,86.00
2018-04-02T01:03:40.315Z,85.30
2018-04-02T01:06:08.354Z,83.90
2018-04-02T01:08:36.475Z,82.90
2018-04-02T01:11:04.448Z,82.60
2018-04-02T01:13:32.326Z,84.30
2018-04-02T01:16:00.223Z,87.10
2018-04-02T01:18:28.979Z,87.80
2018-04-02T01:20:57.023Z,87.80
2018-04-02T01:23:24.932Z,85.20
2018-04-02T01:25:53.668Z,84.50
2018-04-02T01:28:21.515Z,84.40
2018-04-02T01:30:50.203Z,87.40
2018-04-02T01:33:18.064Z,87.30
2018-04-02T01:35:46.701Z,89.30
2018-04-02T01:38:14.557Z,89.20
2018-04-02T01:40:42.441Z,88.90
2018-04-02T01:43:10.383Z,87.70
2018-04-02T01:45:38.264Z,86.60
2018-04-02T01:48:06.201Z,85.50
2018-04-02T01:50:34.116Z,82.70
2018-04-02T01:53:01.948Z,81.30
2018-04-02T01:55:29.949Z,81.20
2018-04-02T01:57:57.918Z,82.80
2018-04-02T02:00:25.790Z,81.60
2018-04-02T02:02:53.762Z,81.00
2018-04-02T02:05:21.668Z,82.40
2018-04-02T02:07:50.377Z,83.70
2018-04-02T02:10:18.352Z,83.60
2018-04-02T02:12:46.203Z,83.30
2018-04-02T02:15:14.099Z,84.70
2018-04-02T02:17:41.989Z,86.80
2018-04-02T02:20:09.858Z,89.10
2018-04-02T02:22:37.780Z,87.60
2018-04-02T02:25:05.588Z,89.70
2018-04-02T02:27:33.356Z,87.40
2018-04-02T02:30:01.540Z,86.70
2018-04-02T02:32:29.356Z,85.80
2018-04-02T02:34:57.156Z,86.20
2018-04-02T02:37:25.067Z,87.10
2018-04-02T02:39:52.903Z,87.10
2018-04-02T02:42:20.752Z,86.50
2018-04-02T02:44:48.604Z,87.10
2018-04-02T02:47:16.533Z,87.00
2018-04-02T02:49:44.385Z,82.70
2018-04-02T02:52:12.934Z,81.30
2018-04-02T02:54:40.796Z,81.20
2018-04-02T02:57:08.595Z,82.80
2018-04-02T02:59:36.356Z,85.60
2018-04-02T03:02:04.149Z,86.10
2018-04-02T03:04:31.899Z,85.90
2018-04-02T03:07:00.454Z,88.70
2018-04-02T03:09:28.279Z,88.00
2018-04-02T03:11:56.036Z,89.50
2018-04-02T03:14:24.634Z,90.60
2018-04-02T03:16:52.492Z,90.60
2018-04-02T03:19:20.328Z,90.60
2018-04-02T03:21:48.899Z,90.90
2018-04-02T03:24:16.675Z,90.80
2018-04-02T03:26:45.239Z,91.30
2018-04-02T03:29:12.993Z,91.30
2018-04-02T03:31:40.871Z,91.50
2018-04-02T03:34:09.461Z,91.30
2018-04-02T03:36:37.247Z,91.20
2018-04-02T03:39:05.839Z,91.90
2018-04-02T03:41:33.585Z,91.80
2018-04-02T03:44:02.129Z,91.40
2018-04-02T03:46:30.006Z,91.40
2018-04-02T03:48:57.803Z,91.80
2018-04-02T03:51:26.375Z,92.50
2018-04-02T03:53:54.211Z,92.50
2018-04-02T03:56:22.004Z,92.90
2018-04-02T03:58:49.826Z,93.10
2018-04-02T04:01:17.623Z,93.10
2018-04-02T04:03:45.393Z,92.40
2018-04-02T04:06:13.173Z,92.20
2018-04-02T04:08:41.765Z,93.60
2018-04-02T04:11:10.269Z,94.00
2018-04-02T04:13:37.987Z,93.90
2018-04-02T04:16:05.799Z,94.40
2018-04-02T04:18:33.586Z,94.30
2018-04-02T04:21:01.408Z,93.80
2018-04-02T04:23:29.947Z,93.00
2018-04-02T04:25:57.716Z,93.00
2018-04-02T04:28:25.539Z,92.10
2018-04-02T04:30:53.370Z,92.20
2018-04-02T04:33:21.117Z,92.50
2018-04-02T04:35:48.879Z,92.90
2018-04-02T04:38:16.708Z,93.80
2018-04-02T04:40:44.439Z,93.80
2018-04-02T04:43:12.976Z,94.70
2018-04-02T04:45:40.768Z,94.70
2018-04-02T04:48:08.550Z,94.80
2018-04-02T04:50:37.203Z,94.00
2018-04-02T04:53:05.809Z,94.70
2018-04-02T04:55:33.578Z,94.70
2018-04-02T04:58:02.078Z,94.30
2018-04-02T05:00:30.668Z,94.70
2018-04-02T05:02:58.476Z,94.70
2018-04-02T05:05:26.360Z,95.00
2018-04-02T05:07:54.147Z,94.60
2018-04-02T05:10:22.724Z,94.60
2018-04-02T05:12:51.378Z,95.00
2018-04-02T05:15:19.203Z,95.00
2018-04-02T05:17:47.117Z,94.30
2018-04-02T05:20:14.874Z,94.00
2018-04-02T05:22:42.727Z,94.10
2018-04-02T05:25:10.483Z,94.40
2018-04-02T05:27:38.302Z,94.60
2018-04-02T05:30:06.101Z,94.90
2018-04-02T05:32:33.914Z,94.90
2018-04-02T05:35:01.686Z,94.70
2018-04-02T05:37:29.506Z,94.70
2018-04-02T05:39:57.316Z,94.90
2018-04-02T05:42:25.133Z,95.00
2018-04-02T05:44:52.935Z,94.90
2018-04-02T05:47:20.790Z,94.70
2018-04-02T05:49:48.610Z,94.80
2018-04-02T05:52:17.169Z,94.90
2018-04-02T05:54:45.001Z,94.90
2018-04-02T05:57:13.667Z,94.90
2018-04-02T05:59:41.501Z,94.80
2018-04-02T06:02:09.368Z,94.90
2018-04-02T06:04:37.186Z,95.10
2018-04-02T06:07:04.993Z,95.20
2018-04-02T06:09:33.519Z,95.50
2018-04-02T06:12:01.383Z,95.30
2018-04-02T06:14:29.299Z,95.40
2018-04-02T06:16:57.148Z,95.80
2018-04-02T06:19:25.751Z,95.90
2018-04-02T06:21:53.767Z,95.90
2018-04-02T06:24:21.568Z,96.20
2018-04-02T06:26:49.419Z,96.30
2018-04-02T06:29:17.246Z,96.40
2018-04-02T06:31:45.883Z,96.20
2018-04-02T06:34:13.673Z,96.20
2018-04-02T06:36:41.464Z,96.10
2018-04-02T06:39:09.196Z,95.90
2018-04-02T06:41:37.001Z,96.20
2018-04-02T06:44:04.903Z,96.60
2018-04-02T06:46:32.687Z,97.00
2018-04-02T06:49:00.523Z,97.50
2018-04-02T06:51:28.472Z,97.80
2018-04-02T06:53:56.292Z,97.60
2018-04-02T06:56:24.096Z,97.60
2018-04-02T06:58:52.118Z,97.90
2018-04-02T07:01:21.470Z,96.90
2018-04-02T07:03:49.636Z,96.90
2018-04-02T07:06:18.032Z,96.20
2018-04-02T07:08:45.739Z,95.30
2018-04-02T07:11:13.543Z,93.40
2018-04-02T07:13:41.369Z,99.90
2018-04-02T07:16:09.162Z,93.20
2018-04-02T07:18:37.828Z,90.30
2018-04-02T07:21:05.619Z,90.30
2018-04-02T07:23:33.458Z,83.60
2018-04-02T07:26:01.203Z,88.90
2018-04-02T07:28:29.026Z,85.30
2018-04-02T07:30:56.840Z,84.10
2018-04-02T07:33:24.731Z,79.30
2018-04-02T07:35:52.610Z,74.50
2018-04-02T07:38:21.179Z,68.30
2018-04-02T07:40:48.990Z,68.20
2018-04-02T07:43:16.896Z,68.10
2018-04-02T07:45:44.764Z,69.60
2018-04-02T07:48:12.727Z,73.40
2018-04-02T07:50:40.703Z,69.80
2018-04-02T07:53:08.733Z,68.10
2018-04-02T07:55:36.723Z,69.30
2018-04-02T07:58:04.607Z,67.80
2018-04-02T08:00:32.441Z,62.60
2018-04-02T08:03:00.342Z,64.50
2018-04-02T08:05:28.677Z,62.60
2018-04-02T08:07:56.519Z,60.70
2018-04-02T08:10:25.137Z,65.50
2018-04-02T08:12:53.141Z,65.40
2018-04-02T08:15:21.055Z,64.10
2018-04-02T08:17:49.030Z,63.70
2018-04-02T08:20:17.253Z,62.00
2018-04-02T08:22:45.220Z,59.70
2018-04-02T08:25:13.151Z,57.90
2018-04-02T08:27:41.092Z,57.90
2018-04-02T08:30:09.238Z,59.10
2018-04-02T08:32:37.234Z,59.30
2018-04-02T08:35:05.793Z,55.30
2018-04-02T08:37:33.536Z,55.20
2018-04-02T08:40:01.275Z,52.90
2018-04-02T08:42:29.118Z,53.20
2018-04-02T08:44:57.707Z,55.00
2018-04-02T08:47:25.528Z,55.00
2018-04-02T08:49:53.437Z,53.10
2018-04-02T08:52:21.998Z,49.10
2018-04-02T08:54:49.855Z,49.10
2018-04-02T08:57:17.720Z,51.70
2018-04-02T08:59:45.653Z,52.10
2018-04-02T09:02:13.472Z,50.20
2018-04-02T09:04:41.308Z,50.00
2018-04-02T09:07:09.267Z,42.70
2018-04-02T09:09:37.057Z,44.50
2018-04-02T09:12:05.376Z,43.00
2018-04-02T09:14:33.299Z,44.20
2018-04-02T09:17:01.176Z,43.00
2018-04-02T09:19:29.032Z,43.40
2018-04-02T09:21:56.829Z,44.20
2018-04-02T09:24:25.432Z,42.90
2018-04-02T09:26:53.540Z,42.90
2018-04-02T09:29:21.611Z,40.30
2018-04-02T09:31:50.340Z,39.70
2018-04-02T09:34:18.992Z,39.70
2018-04-02T09:36:46.807Z,39.70
2018-04-02T09:39:14.650Z,39.70
2018-04-02T09:41:43.625Z,38.40
2018-04-02T09:44:11.400Z,38.50
2018-04-02T09:46:39.235Z,37.00
2018-04-02T09:49:07.072Z,36.50
2018-04-02T09:51:34.922Z,38.90
2018-04-02T09:54:03.576Z,35.60
2018-04-02T09:56:31.508Z,35.60
2018-04-02T09:58:59.352Z,34.20
2018-04-02T10:01:29.981Z,33.60
2018-04-02T10:03:58.384Z,36.50
2018-04-02T10:06:26.151Z,35.00
2018-04-02T10:08:53.909Z,35.30
2018-04-02T10:11:21.768Z,36.20
2018-04-02T10:13:50.167Z,33.80
2018-04-02T10:16:18.027Z,35.00
2018-04-02T10:18:45.977Z,34.80
2018-04-02T10:21:13.856Z,35.40
2018-04-02T10:23:41.836Z,34.20
2018-04-02T10:26:09.769Z,34.40
2018-04-02T10:28:37.918Z,33.50
2018-04-02T10:31:05.752Z,33.20
2018-04-02T10:33:33.658Z,33.30
2018-04-02T10:36:01.550Z,33.80
2018-04-02T10:38:29.430Z,32.30
2018-04-02T10:40:57.505Z,32.60
2018-04-02T10:43:25.480Z,33.80
2018-04-02T10:45:53.326Z,33.10
2018-04-02T10:48:21.115Z,31.60
2018-04-02T10:50:48.917Z,30.30
2018-04-02T10:53:16.685Z,30.00
2018-04-02T10:55:44.494Z,30.30
2018-04-02T10:58:12.289Z,29.40
2018-04-02T11:00:40.070Z,29.30
2018-04-02T11:03:08.760Z,30.30
2018-04-02T11:05:36.574Z,30.30
2018-04-02T11:08:04.356Z,31.20
2018-04-02T11:10:32.281Z,29.10
2018-04-02T11:13:00.910Z,27.60
2018-04-02T11:15:28.675Z,27.60
2018-04-02T11:17:56.634Z,28.10
2018-04-02T11:20:24.463Z,26.70
2018-04-02T11:22:53.134Z,26.50
2018-04-02T11:25:21.058Z,26.50
2018-04-02T11:27:48.868Z,27.40
2018-04-02T11:30:16.764Z,27.10
2018-04-02T11:32:45.354Z,26.80
2018-04-02T11:35:13.179Z,26.80
2018-04-02T11:37:40.960Z,25.80
2018-04-02T11:40:08.809Z,25.60
2018-04-02T11:42:36.694Z,25.50
2018-04-02T11:45:05.228Z,24.70
2018-04-02T11:47:33.925Z,23.70
2018-04-02T11:50:01.879Z,23.60
2018-04-02T11:52:29.711Z,23.00
2018-04-02T11:54:58.406Z,24.70
2018-04-02T11:57:27.005Z,24.00
2018-04-02T11:59:54.819Z,24.00
2018-04-02T12:02:22.749Z,24.40
2018-04-02T12:04:50.534Z,24.40
2018-04-02T12:07:18.327Z,23.90
2018-04-02T12:09:46.215Z,24.00
2018-04-02T12:12:14.719Z,23.80
2018-04-02T12:14:42.572Z,23.80
2018-04-02T12:17:10.636Z,24.40
2018-04-02T12:19:39.420Z,23.20
2018-04-02T12:22:07.989Z,24.60
2018-04-02T12:24:35.892Z,24.50
2018-04-02T12:27:03.729Z,24.90
2018-04-02T12:29:32.323Z,24.30
2018-04-02T12:32:00.841Z,22.70
2018-04-02T12:34:28.793Z,22.70
2018-04-02T12:36:56.674Z,23.40
2018-04-02T12:39:24.484Z,22.60
2018-04-02T12:41:52.384Z,23.20
2018-04-02T12:44:20.273Z,22.80
2018-04-02T12:46:48.203Z,22.80
2018-04-02T12:49:16.833Z,24.20
2018-04-02T12:51:44.738Z,24.20
2018-04-02T12:54:12.770Z,22.80
2018-04-02T12:56:40.700Z,22.00
2018-04-02T12:59:08.438Z,22.10
2018-04-02T13:01:36.310Z,21.40
2018-04-02T13:04:04.179Z,23.50
2018-04-02T13:06:32.019Z,23.40
2018-04-02T13:08:59.867Z,21.90
2018-04-02T13:11:27.716Z,21.50
2018-04-02T13:13:55.599Z,21.70
2018-04-02T13:16:23.386Z,21.30
2018-04-02T13:18:51.279Z,20.70
2018-04-02T13:21:19.157Z,21.40
2018-04-02T13:23:47.796Z,21.30
2018-04-02T13:26:15.682Z,21.30
2018-04-02T13:28:43.460Z,21.10
2018-04-02T13:31:11.267Z,21.20
2018-04-02T13:33:39.123Z,19.90
2018-04-02T13:36:07.783Z,18.20
2018-04-02T13:38:35.572Z,18.20
2018-04-02T13:41:04.261Z,18.10
2018-04-02T13:43:32.183Z,18.10
2018-04-02T13:45:59.802Z,17.40
2018-04-02T13:48:27.461Z,16.10
2018-04-02T13:50:55.213Z,16.30
2018-04-02T13:53:22.985Z,17.10
2018-04-02T13:55:50.724Z,17.60
2018-04-02T13:58:18.639Z,16.80
2018-04-02T14:00:46.508Z,17.00
2018-04-02T14:03:14.436Z,16.00
2018-04-02T14:05:43.207Z,17.80
2018-04-02T14:08:11.034Z,17.80
2018-04-02T14:10:38.963Z,17.80
2018-04-02T14:13:06.775Z,16.90
2018-04-02T14:15:34.558Z,17.30
2018-04-02T14:18:02.507Z,17.80
2018-04-02T14:20:30.309Z,16.40
2018-04-02T14:22:58.152Z,16.00
2018-04-02T14:25:26.090Z,16.90
2018-04-02T14:27:53.939Z,15.80
2018-04-02T14:30:21.840Z,15.40
2018-04-02T14:32:50.106Z,14.60
2018-04-02T14:35:18.015Z,13.90
2018-04-02T14:37:45.821Z,14.90
2018-04-02T14:40:13.687Z,13.90
2018-04-02T14:42:41.601Z,13.40
2018-04-02T14:45:09.447Z,14.40
2018-04-02T14:47:37.679Z,14.30
2018-04-02T14:50:06.334Z,13.70
2018-04-02T14:52:34.074Z,13.70
2018-04-02T14:55:02.142Z,14.80
2018-04-02T14:57:29.913Z,16.20
2018-04-02T14:59:58.535Z,18.10
2018-04-02T15:02:27.252Z,18.00
2018-04-02T15:04:55.070Z,17.60
2018-04-02T15:07:23.065Z,17.40
2018-04-02T15:09:50.984Z,15.80
2018-04-02T15:12:18.787Z,16.20
2018-04-02T15:14:46.608Z,16.60
2018-04-02T15:17:14.485Z,16.20
2018-04-02T15:19:42.344Z,17.00
2018-04-02T15:22:10.158Z,15.80
2018-04-02T15:24:38.801Z,15.60
2018-04-02T15:27:06.572Z,15.60
2018-04-02T15:29:34.385Z,15.60
2018-04-02T15:32:02.970Z,16.50
2018-04-02T15:34:31.555Z,18.20
2018-04-02T15:37:00.257Z,19.20
2018-04-02T15:39:28.133Z,19.20
2018-04-02T15:41:55.985Z,20.50
2018-04-02T15:44:23.827Z,21.20
2018-04-02T15:46:51.917Z,20.50
2018-04-02T15:49:20.612Z,21.60
2018-04-02T15:51:48.450Z,21.60
2018-04-02T15:54:16.336Z,21.70
2018-04-02T15:56:44.921Z,21.80
2018-04-02T15:59:13.624Z,21.30
2018-04-02T16:01:41.587Z,21.30
2018-04-02T16:04:09.443Z,21.30
2018-04-02T16:06:37.346Z,21.70
2018-04-02T16:09:05.485Z,22.90
2018-04-02T16:11:34.064Z,23.80
2018-04-02T16:14:01.937Z,23.70
2018-04-02T16:16:30.519Z,24.80
2018-04-02T16:18:59.263Z,25.70
2018-04-02T16:21:27.159Z,25.60
2018-04-02T16:23:55.828Z,25.90
2018-04-02T16:26:23.708Z,25.90
2018-04-02T16:28:52.322Z,26.80
2018-04-02T16:31:20.213Z,26.70
2018-04-02T16:33:48.069Z,27.70
2018-04-02T16:36:15.825Z,28.60
2018-04-02T16:38:43.747Z,29.40
2018-04-02T16:41:11.636Z,28.80
2018-04-02T16:43:40.406Z,28.20
2018-04-02T16:46:08.437Z,28.20
2018-04-02T16:48:36.331Z,28.30
2018-04-02T16:51:04.148Z,29.00
2018-04-02T16:53:32.059Z,29.30
2018-04-02T16:55:59.824Z,29.60
2018-04-02T16:58:28.510Z,30.00
2018-04-02T17:00:56.374Z,30.00
2018-04-02T17:03:24.219Z,31.00
2018-04-02T17:05:51.989Z,30.60
2018-04-02T17:08:19.798Z,31.60
2018-04-02T17:10:47.568Z,31.60
2018-04-02T17:13:16.218Z,32.10
2018-04-02T17:15:44.090Z,32.10
2018-04-02T17:18:11.984Z,33.00
2018-04-02T17:20:40.584Z,32.90
2018-04-02T17:23:09.264Z,33.20
2018-04-02T17:25:37.860Z,32.90
2018-04-02T17:28:05.700Z,32.90
2018-04-02T17:30:33.600Z,35.70
2018-04-02T17:33:01.398Z,36.40
2018-04-02T17:35:29.185Z,34.40
2018-04-02T17:37:57.057Z,35.30
2018-04-02T17:40:24.819Z,36.80
2018-04-02T17:42:52.607Z,36.90
2018-04-02T17:45:20.509Z,37.00
2018-04-02T17:47:48.353Z,35.60
2018-04-02T17:50:16.286Z,35.50
2018-04-02T17:52:44.222Z,36.90
2018-04-02T17:55:11.948Z,38.80
2018-04-02T17:57:40.508Z,38.00
2018-04-02T18:00:08.381Z,37.90
2018-04-02T18:02:36.170Z,36.90
2018-04-02T18:05:04.740Z,38.60
2018-04-02T18:07:33.372Z,38.60
2018-04-02T18:10:01.281Z,38.50
2018-04-02T18:12:29.830Z,38.90
2018-04-02T18:14:57.707Z,38.90
2018-04-02T18:17:25.601Z,38.40
2018-04-02T18:19:53.749Z,38.60
2018-04-02T18:22:21.662Z,39.10
2018-04-02T18:24:50.235Z,40.00
2018-04-02T18:27:18.872Z,40.00
2018-04-02T18:29:46.786Z,39.90
2018-04-02T18:32:15.619Z,39.70
2018-04-02T18:34:43.400Z,39.70
2018-04-02T18:37:11.200Z,39.60
2018-04-02T18:39:38.984Z,39.70
2018-04-02T18:42:07.509Z,40.20
2018-04-02T18:44:35.357Z,40.20
2018-04-02T18:47:04.009Z,40.50
2018-04-02T18:49:31.883Z,40.50
2018-04-02T18:52:02.162Z,40.00
2018-04-02T18:54:30.028Z,40.00
2018-04-02T18:56:57.850Z,41.20
2018-04-02T18:59:25.724Z,41.70
2018-04-02T19:01:53.572Z,41.80
2018-04-02T19:04:22.199Z,41.30
2018-04-02T19:06:50.174Z,41.30
2018-04-02T19:09:18.776Z,42.30
2018-04-02T19:11:46.663Z,42.20
2018-04-02T19:14:15.277Z,43.20
2018-04-02T19:16:43.063Z,43.10
2018-04-02T19:19:10.817Z,42.70
2018-04-02T19:21:38.654Z,41.40
2018-04-02T19:24:07.231Z,43.10
2018-04-02T19:26:35.842Z,44.90
2018-04-02T19:29:03.776Z,44.90
2018-04-02T19:31:31.728Z,45.60
2018-04-02T19:33:59.587Z,45.50
2018-04-02T19:36:27.452Z,45.60
2018-04-02T19:38:55.351Z,45.70
2018-04-02T19:41:23.955Z,45.90
2018-04-02T19:43:51.839Z,45.90
2018-04-02T19:46:19.670Z,45.60
2018-04-02T19:48:48.202Z,45.00
2018-04-02T19:51:16.095Z,44.90
2018-04-02T19:53:43.980Z,44.70
2018-04-02T19:56:11.775Z,45.50
2018-04-02T19:58:39.789Z,46.10
2018-04-02T20:01:07.614Z,46.40
2018-04-02T20:03:35.459Z,46.50
2018-04-02T20:06:04.089Z,47.60
2018-04-02T20:08:31.940Z,47.60
2018-04-02T20:10:59.851Z,46.80
2018-04-02T20:13:27.840Z,46.90
2018-04-02T20:15:56.439Z,47.90
2018-04-02T20:18:25.002Z,48.50
2018-04-02T20:20:52.766Z,48.50
2018-04-02T20:23:20.515Z,47.10
2018-04-02T20:25:48.348Z,46.50
2018-04-02T20:28:16.183Z,46.60
2018-04-02T20:30:44.909Z,46.90
2018-04-02T20:33:12.791Z,46.90
2018-04-02T20:35:40.665Z,46.80
2018-04-02T20:38:08.497Z,47.50
2018-04-02T20:40:36.376Z,47.60
2018-04-02T20:43:04.270Z,47.70
2018-04-02T20:45:31.992Z,46.80
2018-04-02T20:47:59.871Z,47.70
2018-04-02T20:50:27.914Z,49.50
2018-04-02T20:52:55.632Z,51.20
2018-04-02T20:55:23.491Z,51.10
2018-04-02T20:57:51.386Z,52.30
2018-04-02T21:00:19.206Z,51.40
2018-04-02T21:02:47.177Z,52.00
2018-04-02T21:05:15.044Z,51.90
2018-04-02T21:07:42.894Z,51.20
2018-04-02T21:10:10.979Z,51.90
2018-04-02T21:12:38.821Z,52.60
2018-04-02T21:15:07.588Z,50.00
2018-04-02T21:17:35.482Z,50.10
2018-04-02T21:20:03.470Z,49.10
2018-04-02T21:22:31.270Z,48.90
2018-04-02T21:24:59.159Z,50.00
2018-04-02T21:27:27.864Z,51.20
2018-04-02T21:29:55.789Z,51.20
2018-04-02T21:32:23.755Z,50.00
2018-04-02T21:34:52.418Z,50.20
2018-04-02T21:37:20.266Z,50.30
2018-04-02T21:39:48.088Z,51.60
2018-04-02T21:42:16.047Z,51.90
2018-04-02T21:44:43.869Z,53.90
2018-04-02T21:47:11.746Z,54.50
2018-04-02T21:49:39.584Z,55.00
2018-04-02T21:52:08.104Z,51.30
2018-04-02T21:54:35.976Z,51.20
2018-04-02T21:57:03.912Z,52.00
2018-04-02T21:59:31.828Z,51.40
2018-04-02T22:01:59.600Z,52.10
2018-04-02T22:04:27.424Z,52.90
2018-04-02T22:07:04.048Z,51.10
2018-04-02T22:09:31.863Z,51.30
2018-04-02T22:11:59.768Z,51.80
2018-04-02T22:14:27.587Z,50.90
2018-04-02T22:16:55.436Z,50.80
2018-04-02T22:19:23.224Z,49.60
2018-04-02T22:21:51.128Z,49.60
2018-04-02T22:24:19.141Z,51.20
2018-04-02T22:26:48.741Z,50.10
2018-04-02T22:29:17.425Z,50.30
2018-04-02T22:31:46.106Z,49.90
2018-04-02T22:34:14.690Z,50.40
2018-04-02T22:36:43.276Z,50.90
2018-04-02T22:39:11.958Z,50.90
2018-04-02T22:41:40.552Z,51.10
2018-04-02T22:44:09.111Z,50.80
2018-04-02T22:46:36.925Z,50.80
2018-04-02T22:49:04.680Z,51.20
2018-04-02T22:51:32.479Z,51.40
2018-04-02T22:54:00.300Z,51.80
2018-04-02T22:56:28.837Z,51.90
2018-04-02T22:58:56.574Z,51.90
2018-04-02T23:01:24.469Z,52.00
2018-04-02T23:03:52.389Z,51.90
2018-04-02T23:06:20.275Z,52.70
2018-04-02T23:08:48.116Z,52.60
2018-04-02T23:11:16.688Z,52.60
2018-04-02T23:13:45.377Z,53.50
2018-04-02T23:16:13.931Z,54.20
2018-04-02T23:18:41.784Z,54.20
2018-04-02T23:21:09.599Z,55.00
2018-04-02T23:23:38.216Z,54.40
2018-04-02T23:26:05.977Z,54.30
2018-04-02T23:28:33.820Z,54.00
2018-04-02T23:31:01.750Z,54.90
2018-04-02T23:33:29.627Z,55.50
2018-04-02T23:35:57.376Z,55.50
2018-04-02T23:38:25.254Z,53.30
2018-04-02T23:40:52.981Z,53.60
2018-04-02T23:43:20.774Z,54.60
2018-04-02T23:45:48.645Z,54.90
2018-04-02T23:48:16.370Z,55.30
2018-04-02T23:50:44.286Z,54.30
2018-04-02T23:53:12.911Z,53.90
2018-04-02T23:55:45.412Z,53.80
2018-04-02T23:58:14.371Z,53.60
